Time;durP1;ratioP1;P1;durP2;ratioP2;P2;SDS_P1;SDS_P2;PMS_P1;PMS_P2;Temp;Humidity;BMP_temperature;BMP_pressure;BME280_temperature;BME280_humidity;BME280_pressure;Samples;Min_cycle;Max_cycle;Signal;HPM_P1;HPM_P2
2023/07/31 00:00:48;;;;;;;10.82;3.60;;;;;;;23.03;55.35;101012.72;4981932;28;20533;-71
2023/07/31 00:03:14;;;;;;;7.47;3.05;;;;;;;23.02;55.22;101011.06;4982696;28;20049;-71
2023/07/31 00:05:39;;;;;;;5.93;2.80;;;;;;;23.03;55.42;101018.03;4982706;28;20041;-71
2023/07/31 00:08:04;;;;;;;5.68;2.58;;;;;;;23.02;55.05;101011.06;4982672;28;20810;-71
2023/07/31 00:10:29;;;;;;;6.85;2.65;;;;;;;23.00;55.33;101007.72;4980641;28;20042;-71
2023/07/31 00:12:55;;;;;;;6.72;3.22;;;;;;;23.00;55.20;101016.53;4982422;28;20069;-73
2023/07/31 00:15:20;;;;;;;8.00;3.20;;;;;;;22.99;55.14;101014.88;4982132;28;20038;-71
2023/07/31 00:17:45;;;;;;;6.70;2.47;;;;;;;22.99;55.08;101006.88;4981943;28;20035;-74
2023/07/31 00:20:11;;;;;;;6.50;2.78;;;;;;;23.01;55.26;101012.06;4981325;28;20038;-71
2023/07/31 00:22:36;;;;;;;7.65;3.08;;;;;;;23.00;54.99;101015.69;4982068;28;20034;-74
2023/07/31 00:25:02;;;;;;;8.07;2.85;;;;;;;22.98;55.45;101005.22;4982090;28;20030;-71
2023/07/31 00:27:27;;;;;;;7.85;3.13;;;;;;;22.98;55.36;101004.38;4982677;28;20531;-71
2023/07/31 00:29:52;;;;;;;6.75;2.90;;;;;;;22.99;55.36;101009.53;4981979;28;20431;-70
2023/07/31 00:32:17;;;;;;;8.02;3.03;;;;;;;22.97;55.05;101008.88;4981525;28;20041;-72
2023/07/31 00:34:43;;;;;;;7.00;2.85;;;;;;;22.97;55.20;100997.38;4982279;28;20026;-71
2023/07/31 00:37:08;;;;;;;7.07;3.25;;;;;;;22.96;55.29;101003.72;4981225;28;20038;-70
2023/07/31 00:39:34;;;;;;;8.20;3.30;;;;;;;22.97;54.93;101005.34;4982238;28;20116;-71
2023/07/31 00:42:00;;;;;;;6.32;3.00;;;;;;;22.97;55.19;101005.34;4981486;28;20030;-71
2023/07/31 00:44:25;;;;;;;7.57;3.30;;;;;;;22.95;55.21;101002.03;4981424;28;20042;-71
2023/07/31 00:46:51;;;;;;;8.65;3.15;;;;;;;22.96;54.99;101003.72;4981902;28;20064;-73
2023/07/31 00:49:16;;;;;;;8.73;3.55;;;;;;;22.95;55.25;101005.50;4981849;28;20026;-71
2023/07/31 00:51:42;;;;;;;7.43;3.15;;;;;;;22.94;55.33;101001.22;4981110;28;20034;-72
2023/07/31 00:54:07;;;;;;;6.53;2.92;;;;;;;22.94;54.95;100995.88;4981960;28;20069;-73
2023/07/31 00:56:33;;;;;;;6.85;2.85;;;;;;;22.94;55.20;100997.69;4981473;28;20034;-72
2023/07/31 00:58:58;;;;;;;7.53;2.85;;;;;;;22.93;55.15;101002.19;4980956;28;20076;-74
2023/07/31 01:01:24;;;;;;;8.18;3.00;;;;;;;22.94;55.00;100993.22;4981613;28;20042;-73
2023/07/31 01:03:53;;;;;;;7.07;2.85;;;;;;;22.94;55.22;100995.03;4981115;28;20720;-73
2023/07/31 01:06:34;;;;;;;8.52;3.20;;;;;;;22.92;55.21;100989.03;4981156;28;20081;-73
2023/07/31 01:09:16;;;;;;;6.15;2.55;;;;;;;22.91;55.20;100988.22;4981012;28;20545;-72
2023/07/31 01:11:57;;;;;;;6.45;2.67;;;;;;;22.91;55.40;100982.91;4980890;28;20026;-73
2023/07/31 01:14:22;;;;;;;8.45;3.05;;;;;;;22.93;54.93;100993.38;4979773;28;20169;-72
2023/07/31 01:16:47;;;;;;;8.27;3.13;;;;;;;22.90;55.12;100991.84;4980139;28;20396;-73
2023/07/31 01:19:15;;;;;;;7.38;3.05;;;;;;;22.90;54.91;100986.53;4980648;28;20422;-72
2023/07/31 01:22:18;;;;;;;6.72;2.90;;;;;;;22.89;55.39;100984.88;4979259;28;20121;-74
2023/07/31 01:25:15;;;;;;;8.38;3.30;;;;;;;22.90;55.10;100981.22;4979682;28;20414;-72
2023/07/31 01:27:53;;;;;;;8.20;3.30;;;;;;;22.90;54.93;100983.88;4980032;28;20022;-72
2023/07/31 01:30:25;;;;;;;8.30;2.75;;;;;;;22.90;55.21;100980.41;4980267;28;20037;-72
2023/07/31 01:32:52;;;;;;;8.10;2.78;;;;;;;22.89;54.86;100982.22;4979718;28;20101;-73
2023/07/31 01:35:18;;;;;;;7.82;3.17;;;;;;;22.90;55.04;100985.72;4979625;28;20107;-71
2023/07/31 01:37:43;;;;;;;7.55;3.13;;;;;;;22.88;55.49;100983.22;4980428;28;20472;-72
2023/07/31 01:40:08;;;;;;;6.78;2.55;;;;;;;22.89;54.98;100984.03;4980085;28;20113;-72
2023/07/31 01:42:34;;;;;;;7.13;2.95;;;;;;;22.89;55.00;100981.38;4980159;28;20472;-75
2023/07/31 01:44:59;;;;;;;6.90;2.58;;;;;;;22.89;55.00;100981.38;4979677;28;20544;-73
2023/07/31 01:47:24;;;;;;;6.73;2.83;;;;;;;22.88;54.93;100979.72;4980102;28;20141;-74
2023/07/31 01:49:49;;;;;;;8.23;3.15;;;;;;;22.87;54.95;100978.88;4979946;28;20765;-72
2023/07/31 01:52:15;;;;;;;5.50;2.90;;;;;;;22.88;54.91;100979.72;4980031;28;20034;-74
2023/07/31 01:54:40;;;;;;;7.00;2.95;;;;;;;22.87;55.21;100972.72;4979586;28;20034;-71
2023/07/31 01:57:06;;;;;;;7.13;3.00;;;;;;;22.87;54.76;100970.91;4979870;28;20538;-73
2023/07/31 01:59:31;;;;;;;7.80;3.17;;;;;;;22.88;54.91;100969.09;4979864;28;20271;-71
2023/07/31 02:01:56;;;;;;;7.20;2.90;;;;;;;22.87;54.73;100967.41;4979212;28;20030;-71
2023/07/31 02:04:22;;;;;;;10.05;3.25;;;;;;;22.86;54.77;100965.75;4980269;28;20431;-71
2023/07/31 02:06:47;;;;;;;7.18;3.03;;;;;;;22.85;54.67;100954.28;4979534;28;20052;-72
2023/07/31 02:09:12;;;;;;;7.15;2.90;;;;;;;22.86;54.84;100949.78;4979721;28;20034;-71
2023/07/31 02:11:37;;;;;;;7.10;3.20;;;;;;;22.84;54.61;100949.94;4979526;28;20041;-70
2023/07/31 02:14:03;;;;;;;5.43;2.58;;;;;;;22.86;55.00;100952.44;4943889;28;1052854;-72
2023/07/31 02:16:28;;;;;;;6.50;2.72;;;;;;;22.83;54.64;100943.81;4979637;28;20046;-72
2023/07/31 02:18:53;;;;;;;6.47;2.58;;;;;;;22.83;54.66;100945.63;4980729;28;20057;-71
2023/07/31 02:21:18;;;;;;;6.75;2.75;;;;;;;22.84;54.64;100939.31;4980112;28;20035;-71
2023/07/31 02:23:44;;;;;;;6.75;3.03;;;;;;;22.83;54.85;100942.97;4980081;28;20029;-71
2023/07/31 02:26:09;;;;;;;7.60;3.13;;;;;;;22.80;54.47;100936.16;4978861;28;20045;-71
2023/07/31 02:28:34;;;;;;;7.57;3.30;;;;;;;22.82;54.57;100934.16;4980385;28;20480;-71
2023/07/31 02:31:00;;;;;;;8.45;3.22;;;;;;;22.80;54.79;100930.81;4979341;28;20117;-69
2023/07/31 02:33:25;;;;;;;9.18;3.40;;;;;;;22.81;54.37;100918.38;4982808;28;20066;-71
2023/07/31 02:35:50;;;;;;;7.13;3.60;;;;;;;22.80;54.71;100930.81;4983301;28;20148;-71
2023/07/31 02:38:15;;;;;;;6.85;3.15;;;;;;;22.78;54.42;100916.88;4983678;28;20030;-71
2023/07/31 02:40:41;;;;;;;6.97;3.17;;;;;;;22.78;54.60;100914.22;4983549;28;20038;-72
2023/07/31 02:43:07;;;;;;;7.70;3.15;;;;;;;22.81;54.44;100905.94;4984183;28;20034;-74
2023/07/31 02:45:32;;;;;;;7.78;3.40;;;;;;;22.79;54.26;100918.53;4983634;28;20044;-74
2023/07/31 02:47:57;;;;;;;6.50;3.50;;;;;;;22.76;54.67;100912.69;4983690;28;20043;-71
2023/07/31 02:50:23;;;;;;;9.43;3.38;;;;;;;22.78;54.63;100919.53;4983511;28;20069;-73
2023/07/31 02:52:48;;;;;;;6.20;3.30;;;;;;;22.78;54.69;100921.34;4983011;28;20058;-72
2023/07/31 02:55:13;;;;;;;8.05;3.10;;;;;;;22.78;54.39;100919.53;4983156;28;20030;-73
2023/07/31 02:57:39;;;;;;;8.27;3.50;;;;;;;22.77;54.81;100917.84;4983490;28;20488;-74
2023/07/31 03:00:06;;;;;;;6.90;3.00;;;;;;;22.78;54.65;100913.34;4983215;28;20049;-73
2023/07/31 03:02:32;;;;;;;8.63;3.15;;;;;;;22.78;54.27;100916.00;4981888;28;20100;-72
2023/07/31 03:04:57;;;;;;;7.97;3.33;;;;;;;22.77;54.23;100907.22;4982996;28;20046;-71
2023/07/31 03:07:22;;;;;;;7.17;3.30;;;;;;;22.76;54.22;100913.50;4983739;28;20121;-74
2023/07/31 03:09:47;;;;;;;9.48;3.25;;;;;;;22.77;54.44;100906.41;4983407;28;20264;-72
2023/07/31 03:12:13;;;;;;;6.57;3.28;;;;;;;22.76;54.40;100902.06;4982928;28;20038;-74
2023/07/31 03:14:38;;;;;;;8.18;3.47;;;;;;;22.76;54.13;100897.56;4983442;28;20107;-71
2023/07/31 03:17:03;;;;;;;6.73;2.87;;;;;;;22.75;54.16;100909.22;4983142;28;20053;-75
2023/07/31 03:19:32;;;;;;;7.80;3.50;;;;;;;22.75;54.20;100909.22;4983174;28;20275;-72
2023/07/31 03:21:57;;;;;;;7.63;3.15;;;;;;;22.74;54.46;100896.06;4983392;28;20034;-71
2023/07/31 03:24:22;;;;;;;6.38;2.95;;;;;;;22.73;54.18;100908.53;4983274;28;20037;-73
2023/07/31 03:26:48;;;;;;;7.10;3.33;;;;;;;22.76;54.25;100904.72;4982738;28;20046;-72
2023/07/31 03:29:13;;;;;;;7.28;3.42;;;;;;;22.76;54.21;100899.41;4983373;28;20042;-73
2023/07/31 03:31:38;;;;;;;7.67;3.13;;;;;;;22.75;54.68;100892.44;4982974;28;20570;-72
2023/07/31 03:34:03;;;;;;;6.47;3.13;;;;;;;22.74;54.28;100885.44;4982943;28;20334;-73
2023/07/31 03:36:29;;;;;;;8.48;3.08;;;;;;;22.74;54.28;100882.78;4983002;28;20430;-72
2023/07/31 03:38:54;;;;;;;5.60;2.83;;;;;;;22.74;53.94;100886.28;4982573;28;20860;-73
2023/07/31 03:41:19;;;;;;;6.68;2.90;;;;;;;22.74;54.17;100877.47;4982114;28;20042;-72
2023/07/31 03:43:51;;;;;;;7.93;3.22;;;;;;;22.73;54.28;100876.66;4981415;28;20314;-72
2023/07/31 03:46:16;;;;;;;8.25;3.30;;;;;;;22.74;54.26;100880.97;4982297;28;20069;-72
2023/07/31 03:48:41;;;;;;;8.60;3.55;;;;;;;22.74;54.16;100874.81;4982079;28;20046;-72
2023/07/31 03:51:07;;;;;;;8.07;3.17;;;;;;;22.74;54.51;100872.16;4982814;28;20561;-72
2023/07/31 03:53:32;;;;;;;8.23;2.97;;;;;;;22.73;54.42;100873.16;4982865;28;20034;-72
2023/07/31 03:55:57;;;;;;;8.63;3.33;;;;;;;22.72;54.25;100869.66;4982324;28;20800;-72
2023/07/31 03:58:22;;;;;;;8.17;2.90;;;;;;;22.72;54.27;100860.88;4982850;28;20264;-73
2023/07/31 04:00:48;;;;;;;7.00;3.25;;;;;;;22.72;54.47;100860.88;4982421;28;20264;-73
2023/07/31 04:03:13;;;;;;;6.93;2.95;;;;;;;22.71;54.51;100852.06;4982578;28;20042;-70
2023/07/31 04:05:39;;;;;;;6.03;3.10;;;;;;;22.71;54.51;100852.06;4981723;28;20648;-72
2023/07/31 04:08:05;;;;;;;6.88;3.20;;;;;;;22.70;54.41;100847.75;4982101;28;20542;-72
2023/07/31 04:10:33;;;;;;;8.25;3.38;;;;;;;22.68;54.80;100847.03;4982221;28;20072;-74
2023/07/31 04:13:00;;;;;;;7.45;3.22;;;;;;;22.69;54.60;100846.06;4981447;28;20057;-74
2023/07/31 04:15:25;;;;;;;7.43;3.55;;;;;;;22.69;54.28;100840.75;4981745;28;20849;-72
2023/07/31 04:17:50;;;;;;;10.13;3.20;;;;;;;22.70;54.24;100844.22;4982064;28;20121;-72
2023/07/31 04:20:16;;;;;;;7.82;3.17;;;;;;;22.70;54.50;100844.22;4982329;28;20026;-73
2023/07/31 04:22:41;;;;;;;9.00;3.33;;;;;;;22.70;54.72;100834.47;4980234;28;20117;-74
2023/07/31 04:25:07;;;;;;;7.07;3.30;;;;;;;22.69;54.74;100827.47;4980561;28;20555;-72
2023/07/31 04:27:32;;;;;;;7.80;3.33;;;;;;;22.70;54.86;100833.59;4981741;28;20029;-72
2023/07/31 04:29:57;;;;;;;7.18;3.40;;;;;;;22.70;54.46;100833.59;4981853;28;20041;-73
2023/07/31 04:32:22;;;;;;;7.20;3.20;;;;;;;22.70;54.55;100822.97;4982210;28;20034;-72
2023/07/31 04:34:48;;;;;;;6.87;2.97;;;;;;;22.70;54.73;100815.00;4981679;28;20272;-73
2023/07/31 04:37:13;;;;;;;10.30;3.40;;;;;;;22.68;54.86;100822.31;4981107;28;20330;-71
2023/07/31 04:39:39;;;;;;;6.57;2.80;;;;;;;22.70;54.47;100823.84;4981660;28;20034;-72
2023/07/31 04:42:04;;;;;;;7.40;3.13;;;;;;;22.69;54.52;100816.03;4981418;28;20030;-71
2023/07/31 04:44:30;;;;;;;8.43;2.70;;;;;;;22.68;54.74;100809.03;4980431;28;20077;-74
2023/07/31 04:46:55;;;;;;;10.63;3.08;;;;;;;22.69;54.75;100802.75;4980260;28;20081;-72
2023/07/31 04:49:21;;;;;;;6.82;2.70;;;;;;;22.69;54.75;100810.72;4980029;28;20039;-74
2023/07/31 04:51:46;;;;;;;7.03;2.95;;;;;;;22.68;54.80;100803.72;4981196;28;20213;-70
2023/07/31 04:54:14;;;;;;;6.90;2.78;;;;;;;22.69;54.29;100803.56;4981963;28;20201;-72
2023/07/31 04:56:41;;;;;;;7.22;2.78;;;;;;;22.67;54.76;100805.56;4980358;28;20045;-71
2023/07/31 04:59:06;;;;;;;8.23;3.00;;;;;;;22.67;54.82;100799.38;4981406;28;20444;-72
2023/07/31 05:01:31;;;;;;;7.70;2.97;;;;;;;22.68;54.97;100804.53;4981579;28;20039;-73
2023/07/31 05:03:56;;;;;;;8.20;2.90;;;;;;;22.67;54.83;100794.06;4981469;28;20034;-71
2023/07/31 05:06:22;;;;;;;7.90;3.03;;;;;;;22.68;54.68;100803.72;4981174;28;20695;-72
2023/07/31 05:08:47;;;;;;;8.60;2.90;;;;;;;22.67;54.49;100788.75;4981182;28;20557;-73
2023/07/31 05:11:12;;;;;;;6.30;2.78;;;;;;;22.67;55.00;100794.94;4981415;28;20535;-72
2023/07/31 05:13:38;;;;;;;7.50;3.30;;;;;;;22.68;54.99;100785.13;4980920;28;20050;-72
2023/07/31 05:16:03;;;;;;;7.40;2.90;;;;;;;22.67;54.60;100788.75;4981270;28;20286;-72
2023/07/31 05:18:29;;;;;;;8.85;3.08;;;;;;;22.67;54.88;100792.28;4979430;28;20065;-72
2023/07/31 05:20:54;;;;;;;6.53;3.00;;;;;;;22.66;54.96;100792.44;4980940;28;20064;-72
2023/07/31 05:23:19;;;;;;;6.18;2.85;;;;;;;22.66;55.14;100795.91;4981116;28;20432;-72
2023/07/31 05:25:45;;;;;;;6.57;2.88;;;;;;;22.66;55.14;100792.44;4979878;28;20364;-72
2023/07/31 05:28:11;;;;;;;7.13;2.85;;;;;;;22.64;55.13;100789.91;4981220;28;20562;-72
2023/07/31 05:30:36;;;;;;;8.60;3.15;;;;;;;22.65;54.78;100794.22;4980134;28;20031;-73
2023/07/31 05:33:02;;;;;;;5.57;2.60;;;;;;;22.67;55.08;100788.75;4980642;28;20085;-72
2023/07/31 05:35:27;;;;;;;6.07;2.90;;;;;;;22.65;55.19;100775.63;4980603;28;20039;-72
2023/07/31 05:37:52;;;;;;;7.87;2.93;;;;;;;22.66;55.10;100797.75;4980677;28;20089;-71
2023/07/31 05:40:17;;;;;;;6.23;2.70;;;;;;;22.65;55.45;100788.91;4980767;28;20268;-71
2023/07/31 05:42:43;;;;;;;6.30;2.63;;;;;;;22.67;55.16;100783.44;4980816;28;20826;-71
2023/07/31 05:45:08;;;;;;;5.88;2.75;;;;;;;22.65;54.98;100770.31;4980631;28;20347;-72
2023/07/31 05:47:34;;;;;;;5.43;2.80;;;;;;;22.66;55.09;100768.53;4980804;28;20029;-72
2023/07/31 05:49:59;;;;;;;6.28;2.50;;;;;;;22.64;54.97;100758.88;4986073;28;20388;-73
2023/07/31 05:52:24;;;;;;;6.53;2.90;;;;;;;22.64;55.48;100764.19;4987815;28;20521;-71
2023/07/31 05:54:50;;;;;;;4.65;2.20;;;;;;;22.64;55.52;100764.19;4984924;28;20271;-69
2023/07/31 05:57:16;;;;;;;6.32;2.60;;;;;;;22.66;55.10;100768.53;4980514;28;20038;-73
2023/07/31 05:59:42;;;;;;;5.18;2.35;;;;;;;22.63;55.17;100759.84;4980367;28;20101;-71
2023/07/31 06:02:08;;;;;;;4.95;2.33;;;;;;;22.64;55.52;100758.06;4980282;28;20099;-72
2023/07/31 06:04:33;;;;;;;6.45;2.38;;;;;;;22.62;55.65;100754.69;4980259;28;20037;-71
2023/07/31 06:06:59;;;;;;;5.18;2.38;;;;;;;22.63;55.23;100754.53;4979235;28;20034;-72
2023/07/31 06:09:25;;;;;;;6.50;2.15;;;;;;;22.65;55.48;100762.34;4979819;28;20035;-72
2023/07/31 06:11:51;;;;;;;6.32;2.60;;;;;;;22.63;55.64;100759.03;4979396;28;20042;-71
2023/07/31 06:14:16;;;;;;;4.55;2.15;;;;;;;22.63;55.53;100751.06;4980515;28;20073;-72
2023/07/31 06:16:41;;;;;;;6.00;2.40;;;;;;;22.63;55.25;100751.06;4979259;28;20373;-73
2023/07/31 06:19:07;;;;;;;4.50;2.05;;;;;;;22.63;55.41;100751.88;4978827;28;20279;-71
2023/07/31 06:21:32;;;;;;;5.30;2.00;;;;;;;22.62;55.27;100739.63;4980097;28;20077;-72
2023/07/31 06:23:58;;;;;;;4.68;2.20;;;;;;;22.62;55.41;100738.75;4979463;28;20613;-73
2023/07/31 06:26:23;;;;;;;4.55;2.03;;;;;;;22.61;55.43;100740.59;4980503;28;20042;-72
2023/07/31 06:28:48;;;;;;;5.07;2.20;;;;;;;22.62;55.58;100744.06;4979657;28;20038;-73
2023/07/31 06:31:14;;;;;;;5.10;2.30;;;;;;;22.63;55.33;100745.75;4979836;28;20046;-72
2023/07/31 06:33:39;;;;;;;4.55;2.25;;;;;;;22.62;55.74;100738.75;4980275;28;20038;-72
2023/07/31 06:36:04;;;;;;;4.80;2.00;;;;;;;22.61;55.30;100737.94;4978625;28;20511;-72
2023/07/31 06:38:30;;;;;;;6.00;2.30;;;;;;;22.61;55.47;100737.13;4980127;28;20038;-75
2023/07/31 06:40:55;;;;;;;4.90;2.20;;;;;;;22.59;55.63;100733.78;4979197;28;20042;-74
2023/07/31 06:43:21;;;;;;;4.78;2.20;;;;;;;22.59;55.40;100737.28;4979653;28;20046;-72
2023/07/31 06:45:48;;;;;;;4.65;1.98;;;;;;;22.61;55.78;100726.50;4979661;28;20464;-73
2023/07/31 06:48:14;;;;;;;4.70;2.28;;;;;;;22.61;55.80;100729.97;4979565;28;20428;-73
2023/07/31 06:50:39;;;;;;;5.15;1.90;;;;;;;22.64;55.72;100724.34;4979057;28;20114;-72
2023/07/31 06:53:04;;;;;;;5.15;2.70;;;;;;;22.64;55.82;100715.56;4980554;28;20038;-73
2023/07/31 06:55:30;;;;;;;5.32;2.15;;;;;;;22.66;56.32;100723.38;4980014;28;20038;-73
2023/07/31 06:57:55;;;;;;;6.03;2.63;;;;;;;22.64;56.30;100713.72;4979304;28;20049;-72
2023/07/31 07:00:22;;;;;;;4.55;2.15;;;;;;;22.64;55.99;100719.03;4980697;28;20061;-73
2023/07/31 07:02:48;;;;;;;4.70;2.30;;;;;;;22.65;56.30;100719.84;4979760;28;20038;-72
2023/07/31 07:05:14;;;;;;;5.35;2.00;;;;;;;22.66;56.03;100720.72;4979865;28;20042;-72
2023/07/31 07:07:42;;;;;;;5.00;2.13;;;;;;;22.66;56.34;100707.44;4980114;28;20038;-71
2023/07/31 07:10:08;;;;;;;5.53;1.83;;;;;;;22.64;56.74;100705.75;4991549;28;20034;-75
2023/07/31 07:12:33;;;;;;;4.97;2.22;;;;;;;22.60;56.86;100700.91;4979306;28;20064;-74
2023/07/31 07:14:59;;;;;;;5.47;1.92;;;;;;;22.55;57.17;100712.00;4979599;28;20030;-71
2023/07/31 07:17:26;;;;;;;7.15;2.20;;;;;;;22.51;57.44;100700.03;4978072;28;20586;-73
2023/07/31 07:19:51;;;;;;;5.68;2.30;;;;;;;22.46;57.73;100711.13;4981728;28;20046;-75
2023/07/31 07:22:18;;;;;;;4.43;2.20;;;;;;;22.43;57.92;100706.13;4983459;28;20438;-74
2023/07/31 07:24:43;;;;;;;5.97;2.30;;;;;;;22.43;57.85;100690.19;4983797;28;20069;-75
2023/07/31 07:27:08;;;;;;;4.55;1.90;;;;;;;22.44;58.26;100693.69;4982647;28;20062;-74
2023/07/31 07:29:34;;;;;;;4.87;2.03;;;;;;;22.44;58.11;100693.69;4983959;28;20069;-74
2023/07/31 07:32:00;;;;;;;6.88;1.90;;;;;;;22.44;58.32;100697.16;4982865;28;20280;-75
2023/07/31 07:34:26;;;;;;;5.22;2.33;;;;;;;22.45;58.37;100704.16;4983386;28;20030;-76
2023/07/31 07:36:52;;;;;;;4.05;2.20;;;;;;;22.45;58.10;100704.16;4982305;28;20045;-69
2023/07/31 07:39:17;;;;;;;4.30;2.00;;;;;;;22.47;57.76;100704.00;4982426;28;20042;-70
2023/07/31 07:41:42;;;;;;;6.93;2.15;;;;;;;22.49;58.24;100706.50;4982747;28;20037;-70
2023/07/31 07:44:08;;;;;;;5.47;1.80;;;;;;;22.48;58.19;100704.81;4979878;28;20704;-73
2023/07/31 07:46:33;;;;;;;5.07;2.00;;;;;;;22.51;57.92;100699.19;4982718;28;20272;-71
2023/07/31 07:48:59;;;;;;;4.45;2.00;;;;;;;22.52;57.60;100707.00;4982738;28;20183;-72
2023/07/31 07:51:24;;;;;;;4.18;2.13;;;;;;;22.52;57.94;100703.53;4983398;28;20034;-73
2023/07/31 07:53:49;;;;;;;4.20;2.22;;;;;;;22.52;58.01;100701.69;4980552;28;20424;-73
2023/07/31 07:56:14;;;;;;;6.40;2.00;;;;;;;22.51;58.37;100699.19;4983204;28;20026;-74
2023/07/31 07:58:40;;;;;;;5.70;2.20;;;;;;;22.51;59.25;100705.34;4982420;28;20274;-73
2023/07/31 08:01:05;;;;;;;6.93;2.10;;;;;;;22.50;58.74;100703.69;4982706;28;20045;-73
2023/07/31 08:03:30;;;;;;;7.28;2.47;;;;;;;22.55;58.34;100701.38;4980134;28;20302;-76
2023/07/31 08:06:00;;;;;;;4.25;2.05;;;;;;;22.70;57.49;100692.81;4982530;28;20049;-70
2023/07/31 08:08:26;;;;;;;5.65;2.00;;;;;;;22.83;57.21;100699.38;4981102;28;20109;-78
2023/07/31 08:10:52;;;;;;;6.65;2.00;;;;;;;22.88;56.59;100703.38;4981524;28;20070;-67
2023/07/31 08:13:17;;;;;;;4.53;2.05;;;;;;;22.89;56.57;100683.78;4982180;28;20096;-71
2023/07/31 08:15:42;;;;;;;4.40;1.95;;;;;;;22.93;56.69;100693.09;4982070;28;20096;-75
2023/07/31 08:18:08;;;;;;;7.53;2.30;;;;;;;22.79;57.53;100686.56;4979860;28;20153;-73
2023/07/31 08:20:34;;;;;;;5.10;2.10;;;;;;;22.69;57.62;100689.34;4982223;28;20046;-73
2023/07/31 08:22:59;;;;;;;7.85;3.05;;;;;;;22.61;58.22;100684.81;4980999;28;20050;-74
2023/07/31 08:25:24;;;;;;;5.85;1.95;;;;;;;22.56;57.87;100692.44;4980797;28;20042;-72
2023/07/31 08:27:52;;;;;;;8.98;2.33;;;;;;;22.54;58.18;100689.09;4980738;28;20042;-72
2023/07/31 08:30:19;;;;;;;6.80;2.20;;;;;;;22.52;59.36;100695.56;4978698;28;20057;-69
2023/07/31 08:32:44;;;;;;;9.40;2.30;;;;;;;22.52;58.69;100682.28;4980781;28;20128;-74
2023/07/31 08:35:10;;;;;;;5.43;2.20;;;;;;;22.50;58.42;100690.41;4981374;28;20670;-73
2023/07/31 08:37:35;;;;;;;8.93;2.25;;;;;;;22.50;58.33;100686.94;4981047;28;20370;-73
2023/07/31 08:40:00;;;;;;;6.40;2.20;;;;;;;22.50;58.10;100690.41;4981767;28;20038;-69
2023/07/31 08:42:26;;;;;;;5.72;2.38;;;;;;;22.47;58.33;100685.41;4981637;28;20583;-71
2023/07/31 08:44:55;;;;;;;4.13;1.90;;;;;;;22.45;58.69;100685.56;4981819;28;20034;-71
2023/07/31 08:47:21;;;;;;;4.70;1.98;;;;;;;22.44;58.74;100694.50;4982172;28;20042;-76
2023/07/31 08:49:48;;;;;;;5.38;2.05;;;;;;;22.45;58.64;100690.88;4980539;28;20070;-71
2023/07/31 08:52:13;;;;;;;5.25;2.20;;;;;;;22.50;58.43;100689.59;4980844;28;20141;-73
2023/07/31 08:54:39;;;;;;;4.32;1.88;;;;;;;22.51;58.22;100675.28;4981448;28;20130;-72
2023/07/31 08:57:06;;;;;;;8.32;2.60;;;;;;;22.50;58.24;100681.63;4981007;28;20038;-72
2023/07/31 08:59:34;;;;;;;6.45;2.00;;;;;;;22.50;57.93;100674.47;4981906;28;20030;-76
2023/07/31 09:02:06;;;;;;;4.93;2.08;;;;;;;22.48;58.47;100673.81;4979231;28;20129;-71
2023/07/31 09:04:32;;;;;;;4.55;2.13;;;;;;;22.48;58.61;100681.78;4980927;28;20109;-76
2023/07/31 09:07:01;;;;;;;5.35;2.10;;;;;;;22.48;58.61;100683.56;4980735;28;20049;-76
2023/07/31 09:09:28;;;;;;;5.03;1.92;;;;;;;22.48;58.62;100672.94;4979988;28;20084;-67
2023/07/31 09:11:54;;;;;;;5.25;2.17;;;;;;;22.48;58.52;100686.22;4979374;28;20490;-75
2023/07/31 09:14:21;;;;;;;7.72;2.60;;;;;;;22.46;58.25;100683.72;4980292;28;20107;-69
2023/07/31 09:16:58;;;;;;;5.00;2.03;;;;;;;22.46;58.96;100678.41;4980318;28;20034;-80
2023/07/31 09:19:30;;;;;;;5.05;2.20;;;;;;;22.45;58.94;100679.44;4979868;28;20779;-73
2023/07/31 09:21:55;;;;;;;7.90;2.17;;;;;;;22.48;58.44;100664.97;4979956;28;20037;-75
2023/07/31 09:24:32;;;;;;;5.20;2.10;;;;;;;22.48;58.50;100670.28;4982782;28;20442;-78
2023/07/31 09:26:59;;;;;;;7.35;2.30;;;;;;;22.52;58.66;100667.16;4979912;28;20626;-75
2023/07/31 09:29:26;;;;;;;5.68;2.30;;;;;;;22.53;58.87;100663.53;4981193;28;20034;-73
2023/07/31 09:31:52;;;;;;;8.65;2.58;;;;;;;22.51;58.64;100667.31;4980231;28;20074;-73
2023/07/31 09:34:18;;;;;;;6.15;2.30;;;;;;;22.52;58.68;100666.34;4981293;28;20070;-75
2023/07/31 09:36:47;;;;;;;6.20;2.22;;;;;;;22.53;58.85;100660.06;4980708;28;20514;-76
2023/07/31 09:39:14;;;;;;;7.57;2.30;;;;;;;22.51;58.74;100654.91;4979487;28;20038;-77
2023/07/31 09:41:42;;;;;;;8.80;2.20;;;;;;;22.52;58.82;100669.00;4980465;28;20053;-69
2023/07/31 09:44:07;;;;;;;4.32;2.13;;;;;;;22.52;58.91;100661.84;4979952;28;20038;-78
2023/07/31 09:46:36;;;;;;;5.75;2.20;;;;;;;22.52;58.68;100658.38;4981019;28;20053;-75
2023/07/31 09:49:06;;;;;;;5.47;2.00;;;;;;;22.51;58.81;100654.91;4979894;28;20047;-73
2023/07/31 09:51:32;;;;;;;6.28;2.60;;;;;;;22.51;58.99;100654.91;4980867;28;20094;-73
2023/07/31 09:53:57;;;;;;;6.13;2.38;;;;;;;22.51;58.78;100654.91;4979790;28;20102;-74
2023/07/31 09:56:23;;;;;;;4.97;2.30;;;;;;;22.53;59.11;100654.75;4980300;28;20412;-74
2023/07/31 09:58:50;;;;;;;5.18;2.50;;;;;;;22.51;58.79;100652.25;4979805;28;21408;-75
2023/07/31 10:01:15;;;;;;;6.82;2.15;;;;;;;22.55;58.96;100658.88;4979785;28;20274;-71
2023/07/31 10:03:45;;;;;;;6.93;2.25;;;;;;;22.56;59.17;100652.59;4980079;28;20121;-72
2023/07/31 10:06:12;;;;;;;5.13;2.25;;;;;;;22.56;58.58;100647.28;4980465;28;20026;-74
2023/07/31 10:08:39;;;;;;;5.00;2.15;;;;;;;22.58;58.96;100649.78;4978534;28;20080;-73
2023/07/31 10:11:07;;;;;;;7.80;2.22;;;;;;;22.57;59.18;100648.97;4980212;28;20034;-74
2023/07/31 10:13:33;;;;;;;10.75;2.35;;;;;;;22.59;58.67;100640.84;4978703;28;20058;-74
2023/07/31 10:16:00;;;;;;;5.63;2.70;;;;;;;22.61;58.82;100641.50;4979561;28;20077;-74
2023/07/31 10:18:26;;;;;;;6.18;2.60;;;;;;;22.60;59.43;100639.81;4980134;28;20217;-74
2023/07/31 10:20:52;;;;;;;5.55;2.03;;;;;;;22.61;59.43;100638.84;4980059;28;20034;-77
2023/07/31 10:23:18;;;;;;;6.95;2.40;;;;;;;22.61;59.44;100642.31;4980638;28;20166;-73
2023/07/31 10:25:44;;;;;;;5.15;2.22;;;;;;;22.61;59.16;100644.16;4980131;28;20040;-75
2023/07/31 10:28:11;;;;;;;4.50;2.22;;;;;;;22.61;58.89;100646.81;4979964;28;20081;-72
2023/07/31 10:30:38;;;;;;;6.88;2.20;;;;;;;22.63;59.24;100644.81;4980320;28;20181;-77
2023/07/31 10:33:06;;;;;;;4.28;2.20;;;;;;;22.62;59.15;100644.00;4979092;28;20031;-73
2023/07/31 10:35:31;;;;;;;5.53;2.13;;;;;;;22.65;59.12;100637.53;4980142;28;20038;-72
2023/07/31 10:38:11;;;;;;;5.10;2.30;;;;;;;22.65;59.24;100642.81;4994874;28;20167;-74
2023/07/31 10:40:37;;;;;;;5.38;2.17;;;;;;;22.68;59.15;100647.00;4979731;28;20241;-74
2023/07/31 10:43:02;;;;;;;5.18;2.38;;;;;;;22.67;59.52;100645.31;4979823;28;20431;-73
2023/07/31 10:45:38;;;;;;;5.80;2.25;;;;;;;22.68;59.14;100649.66;4979793;28;20200;-72
2023/07/31 10:48:24;;;;;;;5.32;2.22;;;;;;;22.70;58.93;100650.31;4978796;28;20030;-72
2023/07/31 10:50:51;;;;;;;6.53;2.28;;;;;;;22.70;59.00;100651.19;4978073;28;20546;-73
2023/07/31 10:53:33;;;;;;;5.18;1.95;;;;;;;22.70;59.21;100647.66;4980229;28;20309;-71
2023/07/31 10:56:00;;;;;;;3.88;1.85;;;;;;;22.72;59.12;100645.69;4983447;28;20046;-70
2023/07/31 10:58:26;;;;;;;5.75;2.30;;;;;;;22.71;59.40;100644.03;4983265;28;20511;-71
2023/07/31 11:00:56;;;;;;;6.13;2.00;;;;;;;22.70;59.48;100637.91;4982133;28;20034;-72
2023/07/31 11:03:26;;;;;;;4.30;2.00;;;;;;;22.70;59.08;100637.03;4983212;28;20030;-72
2023/07/31 11:06:02;;;;;;;5.00;2.22;;;;;;;22.73;59.33;100634.06;4982300;28;20490;-72
2023/07/31 11:08:33;;;;;;;3.65;1.88;;;;;;;22.71;59.29;100636.88;4982794;28;20046;-69
2023/07/31 11:11:01;;;;;;;4.78;2.00;;;;;;;22.75;59.04;100645.38;4981984;28;20388;-70
2023/07/31 11:13:41;;;;;;;5.65;2.10;;;;;;;22.73;59.17;100628.75;4982475;28;20050;-77
2023/07/31 11:16:06;;;;;;;4.15;2.17;;;;;;;22.71;59.48;100631.56;4982082;28;20034;-76
2023/07/31 11:18:32;;;;;;;5.15;2.33;;;;;;;22.72;59.46;100635.09;4982574;28;20080;-74
2023/07/31 11:20:57;;;;;;;6.30;1.92;;;;;;;22.72;58.99;100633.25;4982500;28;20736;-74